createdAt,value
2022-10-06T00:00:42.039Z,6.80
2022-10-06T00:01:42.008Z,6.90
2022-10-06T00:02:42.014Z,6.90
2022-10-06T00:03:41.959Z,5.30
2022-10-06T00:04:41.928Z,5.60
2022-10-06T00:05:41.920Z,6.10
2022-10-06T00:06:41.987Z,5.00
2022-10-06T00:07:41.907Z,4.90
2022-10-06T00:08:41.889Z,5.40
2022-10-06T00:09:41.881Z,7.90
2022-10-06T00:10:41.873Z,5.70
2022-10-06T00:11:41.843Z,5.10
2022-10-06T00:12:41.966Z,5.00
2022-10-06T00:13:41.840Z,6.30
2022-10-06T00:14:41.824Z,4.80
2022-10-06T00:15:41.840Z,7.30
2022-10-06T00:16:41.772Z,4.90
2022-10-06T00:17:41.764Z,5.70
2022-10-06T00:18:41.875Z,4.80
2022-10-06T00:19:41.728Z,4.70
2022-10-06T00:20:41.745Z,4.60
2022-10-06T00:21:41.723Z,6.40
2022-10-06T00:22:41.703Z,5.70
2022-10-06T00:23:41.673Z,4.70
2022-10-06T00:24:41.718Z,5.20
2022-10-06T00:25:41.653Z,4.70
2022-10-06T00:26:41.683Z,8.00
2022-10-06T00:27:41.637Z,5.60
2022-10-06T00:28:41.674Z,7.20
2022-10-06T00:29:42.298Z,4.90
2022-10-06T00:30:41.791Z,6.50
2022-10-06T00:31:42.387Z,4.80
2022-10-06T00:32:41.592Z,4.30
2022-10-06T00:33:41.544Z,5.20
2022-10-06T00:34:41.548Z,6.20
2022-10-06T00:35:41.533Z,4.20
2022-10-06T00:36:41.617Z,5.00
2022-10-06T00:37:41.539Z,6.20
2022-10-06T00:38:41.502Z,7.30
2022-10-06T00:39:41.483Z,5.10
2022-10-06T00:40:41.472Z,7.20
2022-10-06T00:41:41.428Z,4.70
2022-10-06T00:42:41.471Z,5.90
2022-10-06T00:43:42.161Z,5.00
2022-10-06T00:44:41.400Z,4.50
2022-10-06T00:45:41.394Z,5.80
2022-10-06T00:46:42.414Z,5.30
2022-10-06T00:47:41.511Z,4.90
2022-10-06T00:48:41.474Z,4.50
2022-10-06T00:49:41.333Z,4.60
2022-10-06T00:50:41.335Z,4.40
2022-10-06T00:51:41.344Z,5.50
2022-10-06T00:52:41.292Z,4.40
2022-10-06T00:53:41.293Z,5.20
2022-10-06T00:54:41.405Z,4.60
2022-10-06T00:55:41.265Z,4.80
2022-10-06T00:56:41.268Z,4.90
2022-10-06T00:57:41.248Z,7.90
2022-10-06T00:58:41.204Z,4.80
2022-10-06T00:59:41.195Z,6.40
2022-10-06T01:00:41.238Z,5.50
2022-10-06T01:01:41.219Z,4.30
2022-10-06T01:02:41.229Z,5.90
2022-10-06T01:03:41.174Z,4.60
2022-10-06T01:04:41.136Z,6.50
2022-10-06T01:05:41.130Z,4.30
2022-10-06T01:06:41.220Z,4.70
2022-10-06T01:07:41.088Z,5.50
2022-10-06T01:08:41.100Z,4.80
2022-10-06T01:09:41.107Z,5.20
2022-10-06T01:10:41.048Z,5.60
2022-10-06T01:11:41.038Z,5.00
2022-10-06T01:12:41.161Z,6.20
2022-10-06T01:13:41.043Z,4.20
2022-10-06T01:14:41.012Z,5.80
2022-10-06T01:15:41.093Z,4.40
2022-10-06T01:16:40.991Z,6.90
2022-10-06T01:17:40.974Z,6.90
2022-10-06T01:18:41.078Z,7.60
2022-10-06T01:19:40.971Z,4.80
2022-10-06T01:20:40.935Z,5.00
2022-10-06T01:21:40.901Z,5.70
2022-10-06T01:22:40.966Z,5.30
2022-10-06T01:23:40.946Z,4.50
2022-10-06T01:24:40.923Z,4.60
2022-10-06T01:25:40.873Z,6.90
2022-10-06T01:26:40.881Z,8.40
2022-10-06T01:27:40.841Z,4.50
2022-10-06T01:28:40.913Z,5.90
2022-10-06T01:29:40.817Z,5.40
2022-10-06T01:30:40.863Z,6.60
2022-10-06T01:31:41.735Z,4.40
2022-10-06T01:32:40.809Z,5.40
2022-10-06T01:33:40.745Z,6.50
2022-10-06T01:34:40.767Z,4.90
2022-10-06T01:35:40.731Z,5.50
2022-10-06T01:36:40.746Z,5.20
2022-10-06T01:37:40.742Z,4.40
2022-10-06T01:38:40.677Z,6.00
2022-10-06T01:39:40.660Z,4.80
2022-10-06T01:40:40.661Z,7.10
2022-10-06T01:41:40.648Z,8.60
2022-10-06T01:42:40.687Z,6.50
2022-10-06T01:43:40.622Z,5.70
2022-10-06T01:44:40.619Z,5.70
2022-10-06T01:45:40.594Z,8.60
2022-10-06T01:46:40.647Z,6.30
2022-10-06T01:47:40.560Z,7.60
2022-10-06T01:48:40.604Z,8.00
2022-10-06T01:49:40.584Z,7.50
2022-10-06T01:50:40.551Z,8.30
2022-10-06T01:51:40.534Z,7.70
2022-10-06T01:52:40.500Z,7.30
2022-10-06T01:53:40.507Z,8.50
2022-10-06T01:54:40.516Z,9.00
2022-10-06T01:55:40.461Z,9.30
2022-10-06T01:56:40.456Z,6.80
2022-10-06T01:57:40.475Z,9.40
2022-10-06T01:58:40.445Z,6.40
2022-10-06T01:59:40.445Z,7.60
2022-10-06T02:00:40.517Z,8.30
2022-10-06T02:01:40.424Z,10.40
2022-10-06T02:02:40.387Z,10.30
2022-10-06T02:03:40.370Z,8.70
2022-10-06T02:04:40.336Z,6.50
2022-10-06T02:05:40.340Z,13.10
2022-10-06T02:06:40.493Z,8.00
2022-10-06T02:07:40.361Z,9.70
2022-10-06T02:08:40.301Z,9.20
2022-10-06T02:09:40.266Z,7.00
2022-10-06T02:10:40.270Z,7.20
2022-10-06T02:11:40.260Z,9.20
2022-10-06T02:12:40.266Z,8.90
2022-10-06T02:13:40.212Z,8.80
2022-10-06T02:14:40.223Z,10.30
2022-10-06T02:15:40.257Z,9.80
2022-10-06T02:16:40.181Z,7.60
2022-10-06T02:17:40.180Z,12.00
2022-10-06T02:18:40.289Z,9.60
2022-10-06T02:19:41.080Z,10.00
2022-10-06T02:20:40.143Z,9.60
2022-10-06T02:21:40.130Z,11.90
2022-10-06T02:22:40.115Z,9.00
2022-10-06T02:23:40.095Z,8.30
2022-10-06T02:24:40.182Z,12.30
2022-10-06T02:25:40.097Z,12.10
2022-10-06T02:26:40.067Z,12.70
2022-10-06T02:27:40.032Z,9.40
2022-10-06T02:28:40.115Z,12.00
2022-10-06T02:29:40.021Z,11.50
2022-10-06T02:30:40.028Z,11.20
2022-10-06T02:31:40.020Z,14.00
2022-10-06T02:32:40.023Z,11.60
2022-10-06T02:33:39.992Z,8.90
2022-10-06T02:34:39.959Z,10.00
2022-10-06T02:35:39.955Z,15.20
2022-10-06T02:36:39.959Z,12.70
2022-10-06T02:37:39.907Z,12.00
2022-10-06T02:38:39.905Z,14.40
2022-10-06T02:39:39.872Z,10.30
2022-10-06T02:40:39.877Z,13.50
2022-10-06T02:41:39.827Z,14.80
2022-10-06T02:42:39.891Z,11.00
2022-10-06T02:43:40.817Z,12.80
2022-10-06T02:44:39.882Z,12.70
2022-10-06T02:45:39.810Z,13.90
2022-10-06T02:46:39.811Z,11.60
2022-10-06T02:47:39.772Z,16.60
2022-10-06T02:48:39.881Z,16.70
2022-10-06T02:49:39.748Z,12.70
2022-10-06T02:50:39.743Z,15.30
2022-10-06T02:51:39.744Z,14.60
2022-10-06T02:52:39.700Z,15.40
2022-10-06T02:53:39.720Z,9.90
2022-10-06T02:54:39.794Z,11.40
2022-10-06T02:55:39.669Z,15.80
2022-10-06T02:56:41.301Z,11.20
2022-10-06T02:57:39.642Z,17.50
2022-10-06T02:58:39.635Z,13.50
2022-10-06T02:59:39.617Z,15.20
2022-10-06T03:00:39.662Z,13.30
2022-10-06T03:01:39.699Z,15.70
2022-10-06T03:02:39.707Z,14.70
2022-10-06T03:03:39.577Z,15.90
2022-10-06T03:04:39.542Z,14.40
2022-10-06T03:05:39.548Z,14.30
2022-10-06T03:06:39.632Z,13.10
2022-10-06T03:07:39.511Z,13.10
2022-10-06T03:08:39.489Z,16.70
2022-10-06T03:09:40.441Z,13.60
2022-10-06T03:10:39.480Z,14.50
2022-10-06T03:11:39.470Z,15.20
2022-10-06T03:12:39.556Z,14.00
2022-10-06T03:13:39.441Z,16.50
2022-10-06T03:14:39.409Z,14.00
2022-10-06T03:15:39.398Z,12.50
2022-10-06T03:16:39.392Z,17.00
2022-10-06T03:17:39.394Z,14.00
2022-10-06T03:18:39.468Z,15.70
2022-10-06T03:19:39.347Z,18.20
2022-10-06T03:20:39.349Z,14.20
2022-10-06T03:21:39.331Z,12.90
2022-10-06T03:22:39.314Z,14.30
2022-10-06T03:23:39.342Z,19.50
2022-10-06T03:24:39.394Z,16.90
2022-10-06T03:25:39.274Z,14.00
2022-10-06T03:26:39.254Z,14.80
2022-10-06T03:27:39.241Z,18.00
2022-10-06T03:28:39.313Z,16.70
2022-10-06T03:29:39.218Z,18.60
2022-10-06T03:30:39.245Z,16.70
2022-10-06T03:31:39.295Z,18.50
2022-10-06T03:32:39.172Z,22.50
2022-10-06T03:33:39.153Z,15.60
2022-10-06T03:34:39.157Z,17.10
2022-10-06T03:35:39.138Z,16.90
2022-10-06T03:36:39.434Z,21.00
2022-10-06T03:37:39.128Z,15.30
2022-10-06T03:38:39.085Z,18.20
2022-10-06T03:39:39.075Z,22.00
2022-10-06T03:40:39.070Z,18.10
2022-10-06T03:41:39.072Z,19.90
2022-10-06T03:42:39.102Z,17.40
2022-10-06T03:43:39.049Z,18.70
2022-10-06T03:44:39.017Z,16.90
2022-10-06T03:45:39.012Z,19.90
2022-10-06T03:46:39.031Z,20.20
2022-10-06T03:47:38.983Z,17.90
2022-10-06T03:48:39.001Z,17.80
2022-10-06T03:49:38.954Z,17.70
2022-10-06T03:50:38.945Z,19.00
2022-10-06T03:51:38.941Z,20.00
2022-10-06T03:52:38.909Z,17.90
2022-10-06T03:53:38.917Z,17.90
2022-10-06T03:54:38.991Z,16.70
2022-10-06T03:55:38.862Z,20.40
2022-10-06T03:56:38.881Z,16.60
2022-10-06T03:57:39.801Z,18.10
2022-10-06T03:58:38.835Z,20.90
2022-10-06T03:59:38.834Z,18.30
2022-10-06T04:00:38.976Z,18.50
2022-10-06T04:01:38.852Z,19.40
2022-10-06T04:02:38.773Z,19.90
2022-10-06T04:03:38.763Z,20.70
2022-10-06T04:04:38.768Z,20.80
2022-10-06T04:05:38.767Z,24.90
2022-10-06T04:06:38.834Z,16.10
2022-10-06T04:07:38.720Z,17.80
2022-10-06T04:08:38.708Z,21.10
2022-10-06T04:09:38.676Z,19.30
2022-10-06T04:10:38.688Z,17.70
2022-10-06T04:11:38.677Z,18.30
2022-10-06T04:12:38.765Z,17.20
2022-10-06T04:13:38.648Z,19.70
2022-10-06T04:14:38.616Z,22.10
2022-10-06T04:15:38.607Z,19.10
2022-10-06T04:16:39.581Z,20.90
2022-10-06T04:17:38.578Z,21.40
2022-10-06T04:18:38.613Z,22.00
2022-10-06T04:19:38.572Z,22.10
2022-10-06T04:20:38.548Z,20.70
2022-10-06T04:21:38.532Z,18.60
2022-10-06T04:22:38.522Z,21.00
2022-10-06T04:23:38.522Z,22.80
2022-10-06T04:24:38.602Z,20.00
2022-10-06T04:25:38.494Z,20.80
2022-10-06T04:26:38.459Z,22.00
2022-10-06T04:27:38.443Z,19.40
2022-10-06T04:28:38.478Z,21.30
2022-10-06T04:29:38.421Z,19.00
2022-10-06T04:30:38.541Z,22.20
2022-10-06T04:31:38.433Z,19.20
2022-10-06T04:32:38.402Z,21.80
2022-10-06T04:33:38.404Z,24.20
2022-10-06T04:34:38.402Z,21.40
2022-10-06T04:35:38.351Z,18.30
2022-10-06T04:36:38.464Z,29.80
2022-10-06T04:37:38.337Z,17.10
2022-10-06T04:38:38.302Z,21.10
2022-10-06T04:39:38.283Z,21.40
2022-10-06T04:40:38.986Z,20.80
2022-10-06T04:41:39.214Z,22.50
2022-10-06T04:42:38.376Z,20.80
2022-10-06T04:43:38.259Z,23.20
2022-10-06T04:44:38.216Z,24.10
2022-10-06T04:45:38.334Z,23.30
2022-10-06T04:46:43.215Z,24.40
2022-10-06T04:47:39.297Z,25.70
2022-10-06T04:48:38.182Z,20.00
2022-10-06T04:49:38.166Z,24.40
2022-10-06T04:50:38.162Z,21.70
2022-10-06T04:51:38.151Z,19.20
2022-10-06T04:52:38.116Z,17.20
2022-10-06T04:53:38.246Z,18.90
2022-10-06T04:54:38.089Z,23.60
2022-10-06T04:55:38.080Z,19.50
2022-10-06T04:56:38.096Z,23.80
2022-10-06T04:57:38.066Z,18.90
2022-10-06T04:58:38.057Z,25.50
2022-10-06T04:59:38.074Z,20.90
2022-10-06T05:00:38.785Z,25.30
2022-10-06T05:01:38.030Z,21.80
2022-10-06T05:02:38.070Z,20.40
2022-10-06T05:03:37.984Z,23.70
2022-10-06T05:04:37.966Z,22.00
2022-10-06T05:05:38.062Z,22.30
2022-10-06T05:06:37.937Z,23.40
2022-10-06T05:07:37.946Z,19.90
2022-10-06T05:08:37.893Z,25.10
2022-10-06T05:09:37.894Z,23.30
2022-10-06T05:10:37.901Z,24.40
2022-10-06T05:11:37.998Z,20.70
2022-10-06T05:12:37.846Z,25.10
2022-10-06T05:13:37.858Z,22.50
2022-10-06T05:14:37.818Z,21.10
2022-10-06T05:15:37.810Z,22.40
2022-10-06T05:16:37.888Z,19.50
2022-10-06T05:17:37.893Z,27.70
2022-10-06T05:18:37.771Z,20.90
2022-10-06T05:19:37.760Z,25.60
2022-10-06T05:20:37.726Z,21.60
2022-10-06T05:21:37.732Z,24.70
2022-10-06T05:22:37.707Z,23.20
2022-10-06T05:23:37.825Z,25.10
2022-10-06T05:24:37.691Z,20.90
2022-10-06T05:25:37.691Z,23.60
2022-10-06T05:26:37.649Z,22.00
2022-10-06T05:27:37.654Z,24.80
2022-10-06T05:28:37.666Z,19.50
2022-10-06T05:29:37.729Z,25.90
2022-10-06T05:30:37.621Z,17.60
2022-10-06T05:31:37.664Z,22.80
2022-10-06T05:32:37.560Z,21.10
2022-10-06T05:33:37.574Z,21.60
2022-10-06T05:34:37.551Z,25.60
2022-10-06T05:35:37.651Z,21.20
2022-10-06T05:36:37.525Z,20.50
2022-10-06T05:37:37.513Z,25.10
2022-10-06T05:38:38.211Z,22.30
2022-10-06T05:39:37.496Z,22.60
2022-10-06T05:40:37.464Z,23.10
2022-10-06T05:41:37.490Z,26.30
2022-10-06T05:42:37.447Z,21.20
2022-10-06T05:43:37.439Z,22.90
2022-10-06T05:44:37.412Z,19.70
2022-10-06T05:45:37.448Z,21.00
2022-10-06T05:46:37.389Z,21.30
2022-10-06T05:47:37.494Z,21.30
2022-10-06T05:48:37.374Z,24.00
2022-10-06T05:49:37.348Z,22.10
2022-10-06T05:50:37.340Z,24.20
2022-10-06T05:51:37.340Z,24.60
2022-10-06T05:52:38.266Z,21.80
2022-10-06T05:53:37.385Z,26.80
2022-10-06T05:54:37.277Z,23.50
2022-10-06T05:55:37.268Z,22.10
2022-10-06T05:56:38.221Z,22.40
2022-10-06T05:57:37.252Z,24.40
2022-10-06T05:58:37.240Z,21.10
2022-10-06T05:59:37.252Z,22.50
2022-10-06T06:00:37.199Z,24.50
2022-10-06T06:01:37.275Z,23.90
2022-10-06T06:02:37.223Z,23.20
2022-10-06T06:03:37.161Z,21.70
2022-10-06T06:04:37.164Z,20.10
2022-10-06T06:05:37.250Z,24.50
2022-10-06T06:06:37.136Z,22.10
2022-10-06T06:07:37.139Z,21.30
2022-10-06T06:08:37.091Z,22.90
2022-10-06T06:09:37.096Z,21.30
2022-10-06T06:10:37.064Z,25.70
2022-10-06T06:11:38.142Z,22.00
2022-10-06T06:12:37.056Z,21.20
2022-10-06T06:13:37.038Z,26.60
2022-10-06T06:14:37.013Z,25.60
2022-10-06T06:15:37.003Z,19.10
2022-10-06T06:16:37.139Z,27.80
2022-10-06T06:17:37.274Z,23.40
2022-10-06T06:18:36.969Z,21.20
2022-10-06T06:19:36.959Z,23.30
2022-10-06T06:20:36.926Z,20.80
2022-10-06T06:21:36.939Z,24.60
2022-10-06T06:22:36.905Z,21.80
2022-10-06T06:23:37.025Z,21.30
2022-10-06T06:24:36.888Z,26.00
2022-10-06T06:25:36.867Z,25.50
2022-10-06T06:26:36.899Z,22.50
2022-10-06T06:27:36.850Z,20.90
2022-10-06T06:28:36.938Z,21.40
2022-10-06T06:29:36.836Z,24.00
2022-10-06T06:30:36.809Z,22.40
2022-10-06T06:31:36.836Z,20.80
2022-10-06T06:32:36.766Z,22.20
2022-10-06T06:33:36.784Z,22.30
2022-10-06T06:34:36.730Z,21.70
2022-10-06T06:35:36.769Z,23.30
2022-10-06T06:36:36.728Z,21.10
2022-10-06T06:37:36.699Z,20.60
2022-10-06T06:38:36.702Z,23.20
2022-10-06T06:39:36.693Z,23.20
2022-10-06T06:40:36.663Z,21.90
2022-10-06T06:41:36.695Z,22.30
2022-10-06T06:42:36.631Z,23.50
2022-10-06T06:43:36.644Z,23.10
2022-10-06T06:44:36.624Z,22.50
2022-10-06T06:45:36.613Z,23.10
2022-10-06T06:46:36.593Z,26.90
2022-10-06T06:47:36.704Z,21.00
2022-10-06T06:48:36.567Z,25.10
2022-10-06T06:49:36.559Z,21.10
2022-10-06T06:50:36.539Z,23.60
2022-10-06T06:51:36.528Z,24.60
2022-10-06T06:52:36.494Z,17.40
2022-10-06T06:53:36.628Z,23.40
2022-10-06T06:54:36.472Z,21.70
2022-10-06T06:55:36.465Z,24.50
2022-10-06T06:56:36.463Z,18.70
2022-10-06T06:57:36.434Z,19.90
2022-10-06T06:58:36.436Z,21.00
2022-10-06T06:59:36.452Z,23.10
2022-10-06T07:00:36.504Z,22.30
2022-10-06T07:01:36.602Z,18.70
2022-10-06T07:02:36.386Z,21.10
2022-10-06T07:03:56.636Z,20.70
2022-10-06T07:04:37.474Z,20.60
2022-10-06T07:05:36.349Z,22.70
2022-10-06T07:06:36.310Z,20.60
2022-10-06T07:07:36.300Z,26.90
2022-10-06T07:08:36.315Z,23.30
2022-10-06T07:09:36.307Z,18.20
2022-10-06T07:10:36.404Z,22.40
2022-10-06T07:11:36.255Z,23.90
2022-10-06T07:12:36.243Z,20.90
2022-10-06T07:13:36.235Z,25.20
2022-10-06T07:14:36.212Z,22.10
2022-10-06T07:15:36.208Z,17.10
2022-10-06T07:16:36.304Z,25.00
2022-10-06T07:17:36.176Z,20.80
2022-10-06T07:18:36.164Z,21.10
2022-10-06T07:19:36.142Z,22.30
2022-10-06T07:20:36.148Z,18.60
2022-10-06T07:21:36.115Z,22.70
2022-10-06T07:22:36.806Z,20.60
2022-10-06T07:23:36.099Z,22.30
2022-10-06T07:24:36.074Z,26.20
2022-10-06T07:25:37.048Z,22.00
2022-10-06T07:26:36.764Z,20.30
2022-10-06T07:27:36.035Z,18.50
2022-10-06T07:28:36.194Z,22.80
2022-10-06T07:29:36.004Z,24.90
2022-10-06T07:30:39.867Z,26.20
2022-10-06T07:31:36.081Z,19.70
2022-10-06T07:32:35.976Z,24.10
2022-10-06T07:33:35.947Z,20.30
2022-10-06T07:34:36.011Z,23.60
2022-10-06T07:35:35.947Z,20.40
2022-10-06T07:36:35.918Z,21.60
2022-10-06T07:37:35.913Z,22.70
2022-10-06T07:38:36.851Z,22.50
2022-10-06T09:52:11.036Z,14.80
2022-10-06T09:53:11.001Z,18.90
2022-10-06T09:54:11.681Z,20.30
2022-10-06T09:55:10.965Z,18.90
2022-10-06T09:56:10.976Z,15.40
2022-10-06T09:57:10.936Z,16.30
2022-10-06T09:58:10.960Z,16.10
2022-10-06T09:59:10.933Z,15.80
2022-10-06T10:00:10.899Z,13.90
2022-10-06T10:01:10.960Z,17.00
2022-10-06T10:02:10.884Z,16.60
2022-10-06T10:03:10.873Z,16.60
2022-10-06T10:04:26.252Z,18.30
2022-10-06T10:05:12.355Z,15.70
2022-10-06T10:06:34.575Z,14.10
2022-10-06T10:07:11.059Z,16.90
2022-10-06T10:08:10.973Z,14.80
2022-10-06T10:09:15.575Z,17.50
2022-10-06T10:10:11.687Z,13.00
2022-10-06T10:11:11.184Z,14.20
2022-10-06T10:12:11.183Z,15.30
2022-10-06T10:13:15.771Z,17.10
2022-10-06T10:14:10.736Z,18.20
2022-10-06T10:15:14.813Z,15.10
2022-10-06T10:16:12.639Z,16.50
2022-10-06T10:17:12.417Z,15.60
2022-10-06T10:18:10.724Z,20.30
2022-10-06T10:19:14.678Z,14.70
2022-10-06T10:20:10.679Z,15.70
2022-10-06T10:21:10.687Z,15.60
2022-10-06T10:22:15.410Z,14.70
2022-10-06T10:23:10.658Z,15.90
2022-10-06T10:24:10.610Z,16.70
2022-10-06T10:25:10.909Z,14.40
2022-10-06T10:26:10.573Z,14.30
2022-10-06T10:27:10.612Z,16.90
2022-10-06T10:28:11.559Z,14.90
2022-10-06T10:29:10.559Z,14.80
2022-10-06T10:30:10.771Z,11.70
2022-10-06T10:31:10.596Z,16.00
2022-10-06T10:32:14.452Z,13.90
2022-10-06T10:33:10.531Z,14.90
2022-10-06T10:34:23.926Z,14.20
2022-10-06T10:35:12.377Z,16.40
2022-10-06T10:36:14.581Z,14.10
2022-10-06T10:37:11.211Z,15.20
2022-10-06T10:38:14.576Z,12.20
2022-10-06T10:39:10.408Z,13.40
2022-10-06T10:40:10.401Z,13.70
2022-10-06T10:41:10.369Z,14.60
2022-10-06T10:42:10.337Z,15.20
2022-10-06T10:43:10.340Z,17.00
2022-10-06T10:44:10.310Z,14.30
2022-10-06T10:45:10.298Z,15.10
2022-10-06T10:46:10.332Z,12.90
2022-10-06T10:47:10.268Z,15.70
2022-10-06T10:48:10.277Z,15.70
2022-10-06T10:49:10.263Z,10.70
2022-10-06T10:50:10.230Z,14.20
2022-10-06T10:51:10.210Z,11.00
2022-10-06T10:52:10.248Z,12.90
2022-10-06T10:53:10.249Z,12.70
2022-10-06T10:54:10.170Z,15.60
2022-10-06T10:55:10.174Z,16.40
2022-10-06T10:56:10.153Z,14.60
2022-10-06T10:57:10.132Z,13.20
2022-10-06T10:58:10.175Z,12.90
2022-10-06T10:59:10.109Z,13.10
2022-10-06T11:00:10.098Z,12.00
2022-10-06T11:01:10.152Z,13.40
2022-10-06T11:02:10.156Z,14.30
2022-10-06T11:03:10.068Z,15.10
2022-10-06T11:04:10.055Z,14.00
2022-10-06T11:05:10.045Z,12.50
2022-10-06T11:06:10.018Z,14.70
2022-10-06T11:07:10.008Z,12.80
2022-10-06T11:08:09.976Z,12.80
2022-10-06T11:09:09.971Z,15.00
2022-10-06T11:10:10.083Z,15.90
2022-10-06T11:11:09.936Z,16.40
2022-10-06T11:12:09.932Z,12.00
2022-10-06T11:13:09.930Z,14.40
2022-10-06T11:14:09.903Z,15.30
2022-10-06T11:15:09.901Z,11.10
2022-10-06T11:16:09.947Z,9.80
2022-10-06T11:17:09.859Z,12.90
2022-10-06T11:18:09.854Z,14.00
2022-10-06T11:19:09.829Z,15.10
2022-10-06T11:20:09.832Z,14.50
2022-10-06T11:21:09.825Z,14.90
2022-10-06T11:22:09.911Z,11.60
2022-10-06T11:23:09.793Z,10.10
2022-10-06T11:24:09.752Z,10.90
2022-10-06T11:25:09.754Z,16.10
2022-10-06T11:26:09.788Z,13.80
2022-10-06T11:27:09.724Z,16.90
2022-10-06T11:28:09.815Z,11.70
2022-10-06T11:29:09.710Z,10.60
2022-10-06T11:30:09.674Z,9.90
2022-10-06T11:31:09.726Z,12.40
2022-10-06T11:32:09.644Z,11.70
2022-10-06T11:33:09.635Z,11.90
2022-10-06T11:34:09.751Z,12.60
2022-10-06T11:35:09.618Z,16.10
2022-10-06T11:36:09.609Z,17.30
2022-10-06T11:37:09.601Z,14.30
2022-10-06T11:38:09.566Z,13.40
2022-10-06T11:39:09.571Z,10.90
2022-10-06T11:40:09.661Z,14.10
2022-10-06T11:41:10.149Z,12.50
2022-10-06T11:42:09.517Z,13.40
2022-10-06T11:43:09.513Z,15.70
2022-10-06T11:44:09.487Z,15.50
2022-10-06T11:45:09.481Z,14.10
2022-10-06T11:46:09.642Z,12.10
2022-10-06T11:47:09.447Z,14.40
2022-10-06T11:48:09.454Z,12.00
2022-10-06T11:49:09.434Z,14.60
2022-10-06T11:50:09.399Z,13.70
2022-10-06T11:51:09.404Z,15.30
2022-10-06T11:52:09.425Z,12.00
2022-10-06T11:53:09.377Z,10.10
2022-10-06T11:54:09.356Z,12.50
2022-10-06T11:55:09.347Z,14.70
2022-10-06T11:56:09.323Z,13.00
2022-10-06T11:57:09.311Z,10.10
2022-10-06T11:58:29.947Z,7.60
2022-10-06T11:59:10.286Z,13.40
2022-10-06T12:00:09.277Z,13.80
2022-10-06T12:01:09.270Z,10.70
2022-10-06T12:02:09.316Z,12.60
2022-10-06T12:03:09.340Z,14.50
2022-10-06T12:04:09.336Z,15.10
2022-10-06T12:05:28.521Z,9.80
2022-10-06T12:06:10.189Z,10.10
2022-10-06T12:07:09.167Z,11.10
2022-10-06T12:08:09.170Z,13.30
2022-10-06T12:09:09.161Z,13.40
2022-10-06T12:10:09.249Z,9.70
2022-10-06T12:11:10.079Z,13.70
2022-10-06T12:12:09.115Z,17.00
2022-10-06T12:13:13.875Z,14.50
2022-10-06T12:15:31.874Z,13.30
2022-10-06T12:17:14.217Z,12.00
2022-10-06T12:18:10.032Z,12.00
2022-10-06T12:19:09.002Z,11.10
2022-10-06T12:20:09.005Z,11.40
2022-10-06T12:21:09.015Z,14.20
2022-10-06T12:22:08.955Z,10.80
2022-10-06T12:23:08.968Z,14.80
2022-10-06T12:24:08.991Z,9.50
2022-10-06T12:25:08.913Z,14.20
2022-10-06T12:26:08.918Z,11.40
2022-10-06T12:27:09.030Z,13.70
2022-10-06T12:28:08.922Z,11.50
2022-10-06T12:29:08.869Z,12.70
2022-10-06T12:30:08.902Z,10.40
2022-10-06T12:31:08.936Z,10.20
2022-10-06T12:32:08.840Z,10.00
2022-10-06T12:33:08.841Z,14.30
2022-10-06T12:34:08.797Z,11.00
2022-10-06T12:35:08.810Z,9.00
2022-10-06T12:36:08.763Z,12.60
2022-10-06T12:37:08.796Z,11.80
2022-10-06T12:38:08.762Z,13.00
2022-10-06T12:39:08.831Z,9.20
2022-10-06T12:40:08.755Z,10.10
2022-10-06T12:41:08.713Z,11.90
2022-10-06T12:42:08.682Z,11.30
2022-10-06T12:43:08.660Z,10.20
2022-10-06T12:44:08.673Z,11.60
2022-10-06T12:45:08.709Z,10.70
2022-10-06T12:46:08.676Z,12.70
2022-10-06T12:47:08.625Z,10.00
2022-10-06T12:48:08.621Z,9.80
2022-10-06T12:49:09.431Z,11.90
2022-10-06T12:50:08.603Z,12.40
2022-10-06T12:51:08.733Z,13.20
2022-10-06T12:52:08.566Z,11.10
2022-10-06T12:53:08.556Z,11.10
2022-10-06T12:54:08.527Z,12.50
2022-10-06T12:55:08.523Z,13.00
2022-10-06T12:56:08.505Z,13.90
2022-10-06T12:57:08.515Z,13.80
2022-10-06T12:58:08.487Z,12.00
2022-10-06T12:59:08.461Z,12.30
2022-10-06T13:00:08.437Z,12.30
2022-10-06T13:01:08.463Z,11.40
2022-10-06T13:02:08.450Z,15.30
2022-10-06T13:03:08.418Z,14.40
2022-10-06T13:04:08.400Z,9.10
2022-10-06T13:05:08.398Z,10.30
2022-10-06T13:06:08.358Z,12.90
2022-10-06T13:07:08.769Z,16.00
2022-10-06T13:08:08.377Z,13.30
2022-10-06T13:09:08.361Z,14.40
2022-10-06T13:10:08.322Z,12.80
2022-10-06T13:11:08.289Z,14.20
2022-10-06T13:12:08.292Z,14.10
2022-10-06T13:13:08.282Z,13.00
2022-10-06T13:14:08.255Z,14.40
2022-10-06T13:15:08.292Z,10.60
2022-10-06T13:16:08.247Z,10.50
2022-10-06T13:17:08.288Z,11.70
2022-10-06T13:18:08.214Z,11.00
2022-10-06T13:19:08.188Z,14.50
2022-10-06T13:20:08.191Z,11.80
2022-10-06T13:21:08.263Z,12.20
2022-10-06T13:22:08.164Z,10.60
2022-10-06T13:23:10.386Z,10.90
2022-10-06T13:24:08.128Z,12.20
2022-10-06T13:25:08.126Z,12.60
2022-10-06T13:26:08.102Z,13.00
2022-10-06T13:27:08.112Z,10.80
2022-10-06T13:28:08.142Z,8.80
2022-10-06T13:30:51.666Z,15.70
2022-10-06T13:30:56.475Z,13.80
2022-10-06T13:32:06.596Z,12.90
2022-10-06T13:34:56.869Z,11.70
2022-10-06T13:35:01.894Z,12.40
2022-10-06T13:48:19.799Z,13.20
2022-10-06T13:48:24.588Z,10.60
2022-10-06T13:51:39.080Z,11.70
2022-10-06T13:51:43.892Z,11.50
2022-10-06T13:58:38.277Z,11.90
2022-10-06T13:58:43.125Z,12.10
2022-10-06T15:02:31.874Z,11.80
2022-10-06T15:02:36.727Z,11.60
2022-10-06T15:44:10.069Z,12.50
2022-10-06T15:44:14.919Z,13.10
2022-10-06T15:45:14.896Z,12.00
2022-10-06T15:46:14.916Z,11.20
2022-10-06T15:47:14.856Z,11.40
2022-10-06T15:48:14.821Z,13.70
2022-10-06T15:49:14.755Z,14.20
2022-10-06T15:50:18.822Z,14.40
2022-10-06T15:51:14.652Z,14.90
2022-10-06T15:52:14.624Z,13.00
2022-10-06T15:53:14.630Z,11.20
2022-10-06T15:54:14.609Z,13.40
2022-10-06T15:55:14.611Z,11.70
2022-10-06T15:56:14.583Z,11.60
2022-10-06T15:57:20.354Z,12.80
2022-10-06T15:58:15.561Z,11.40
2022-10-06T15:59:14.553Z,18.10
2022-10-06T16:00:14.520Z,11.10
2022-10-06T16:01:14.634Z,10.50
2022-10-06T16:02:14.831Z,17.70
2022-10-06T16:03:14.482Z,13.10
2022-10-06T16:04:14.466Z,21.10
2022-10-06T16:05:14.466Z,15.90
2022-10-06T16:06:14.455Z,16.30
2022-10-06T16:07:14.449Z,12.70
2022-10-06T16:08:14.427Z,14.50
2022-10-06T16:09:14.414Z,14.00
2022-10-06T16:10:14.396Z,14.10
2022-10-06T16:11:14.397Z,14.80
2022-10-06T16:12:14.368Z,16.70
2022-10-06T16:13:14.479Z,15.60
2022-10-06T16:14:14.343Z,14.40
2022-10-06T16:15:14.317Z,17.60
2022-10-06T16:16:14.388Z,29.00
2022-10-06T16:17:14.299Z,32.40
2022-10-06T16:18:14.278Z,20.00
2022-10-06T16:19:15.262Z,18.10
2022-10-06T16:20:14.280Z,32.10
2022-10-06T16:21:14.928Z,23.90
2022-10-06T16:22:14.222Z,14.70
2022-10-06T16:23:14.223Z,26.50
2022-10-06T16:24:14.190Z,173.70
2022-10-06T16:25:14.223Z,50.70
2022-10-06T16:26:14.177Z,30.10
2022-10-06T16:27:14.168Z,20.80
2022-10-06T16:28:14.214Z,21.10
2022-10-06T16:29:14.131Z,18.90
2022-10-06T16:30:14.133Z,36.50
2022-10-06T16:31:14.299Z,60.10
2022-10-06T16:32:14.084Z,29.70
2022-10-06T16:33:14.087Z,42.00
2022-10-06T16:34:14.082Z,30.00
2022-10-06T16:35:18.189Z,32.30
2022-10-06T16:36:14.070Z,31.60
2022-10-06T16:37:14.168Z,19.20
2022-10-06T16:38:14.005Z,14.80
2022-10-06T16:39:14.008Z,13.50
2022-10-06T16:40:13.977Z,15.70
2022-10-06T16:41:13.985Z,13.30
2022-10-06T16:42:13.960Z,15.60
2022-10-06T16:43:13.968Z,16.00
2022-10-06T16:44:13.941Z,16.80
2022-10-06T16:45:13.918Z,20.80
2022-10-06T16:46:13.918Z,15.40
2022-10-06T16:47:13.903Z,14.50
2022-10-06T16:48:13.877Z,13.30
2022-10-06T16:49:13.900Z,14.00
2022-10-06T16:50:13.864Z,15.40
2022-10-06T16:51:13.841Z,15.00
2022-10-06T16:52:13.814Z,18.70
2022-10-06T16:53:16.904Z,16.20
2022-10-06T16:54:13.805Z,16.60
2022-10-06T16:55:13.811Z,18.00
2022-10-06T16:56:13.775Z,16.30
2022-10-06T16:57:13.742Z,15.40
2022-10-06T16:58:13.733Z,21.10
2022-10-06T16:59:13.735Z,18.50
2022-10-06T17:00:13.701Z,12.50
2022-10-06T17:01:13.789Z,20.10
2022-10-06T17:02:14.067Z,20.60
2022-10-06T17:03:13.665Z,16.00
2022-10-06T17:04:13.700Z,12.80
2022-10-06T17:05:13.635Z,16.30
2022-10-06T17:06:13.640Z,17.70
2022-10-06T17:07:13.850Z,14.40
2022-10-06T17:08:13.618Z,17.50
2022-10-06T17:09:13.596Z,21.90
2022-10-06T17:10:20.577Z,14.80
2022-10-06T17:11:14.573Z,17.80
2022-10-06T17:12:13.545Z,15.30
2022-10-06T17:13:13.583Z,15.50